createdAt,value
2023-02-03T00:00:18.968Z,100726.13
2023-02-03T00:03:07.214Z,100743.16
2023-02-03T00:05:37.115Z,100742.28
2023-02-03T00:08:07.151Z,100752.75
2023-02-03T00:10:36.826Z,100747.38
2023-02-03T00:13:04.790Z,100749.22
2023-02-03T00:15:32.499Z,100751.66
2023-02-03T00:18:00.356Z,100742.84
2023-02-03T00:20:28.683Z,100746.09
2023-02-03T00:23:07.030Z,100740.34
2023-02-03T00:25:35.551Z,100743.75
2023-02-03T00:28:04.311Z,100747.84
2023-02-03T00:30:34.681Z,100735.66
2023-02-03T00:33:03.951Z,100737.34
2023-02-03T00:35:31.743Z,100743.41
2023-02-03T00:37:59.683Z,100741.53
2023-02-03T00:40:27.921Z,100738.88
2023-02-03T00:42:56.234Z,100733.66
2023-02-03T00:45:24.444Z,100744.81
2023-02-03T00:47:52.375Z,100738.06
2023-02-03T00:50:20.013Z,100741.63
2023-02-03T00:52:47.996Z,100741.53
2023-02-03T00:55:15.814Z,100741.34
2023-02-03T00:57:43.801Z,100733.47
2023-02-03T01:00:12.270Z,100749.50
2023-02-03T01:02:40.190Z,100748.50
2023-02-03T01:05:08.496Z,100742.59
2023-02-03T01:07:36.432Z,100741.81
2023-02-03T01:10:06.476Z,100746.25
2023-02-03T01:12:34.650Z,100752.97
2023-02-03T01:15:02.342Z,100758.25
2023-02-03T01:17:30.390Z,100763.19
2023-02-03T01:19:58.023Z,100764.78
2023-02-03T01:22:26.047Z,100773.19
2023-02-03T01:24:53.637Z,100768.06
2023-02-03T01:27:21.702Z,100764.38
2023-02-03T01:29:49.668Z,100771.66
2023-02-03T01:32:17.581Z,100761.38
2023-02-03T01:34:45.303Z,100761.31
2023-02-03T01:37:14.566Z,100756.38
2023-02-03T01:39:42.136Z,100759.63
2023-02-03T01:42:14.026Z,100761.22
2023-02-03T01:44:43.487Z,100762.19
2023-02-03T01:47:33.526Z,100767.22
2023-02-03T01:50:04.313Z,100766.53
2023-02-03T01:52:33.849Z,100764.56
2023-02-03T01:55:05.518Z,100762.91
2023-02-03T01:57:39.643Z,100760.41
2023-02-03T02:00:09.462Z,100755.84
2023-02-03T02:02:46.563Z,100757.50
2023-02-03T02:05:27.563Z,100756.47
2023-02-03T02:07:58.467Z,100752.28
2023-02-03T02:10:26.552Z,100761.81
2023-02-03T02:13:00.428Z,100758.50
2023-02-03T02:15:51.092Z,100757.25
2023-02-03T02:18:49.967Z,100754.97
2023-02-03T02:21:23.473Z,100750.97
2023-02-03T02:24:10.319Z,100749.53
2023-02-03T02:26:49.245Z,100739.53
2023-02-03T02:29:27.882Z,100737.03
2023-02-03T02:32:10.820Z,100729.66
2023-02-03T02:35:04.305Z,100729.63
2023-02-03T02:38:15.102Z,100727.19
2023-02-03T02:40:54.446Z,100726.31
2023-02-03T02:43:28.548Z,100724.50
2023-02-03T02:46:06.216Z,100725.50
2023-02-03T02:48:46.634Z,100725.13
2023-02-03T02:51:16.849Z,100726.53
2023-02-03T02:53:52.335Z,100724.13
2023-02-03T02:56:22.101Z,100717.13
2023-02-03T02:58:51.900Z,100724.50
2023-02-03T03:01:20.163Z,100728.63
2023-02-03T03:03:48.056Z,100725.03
2023-02-03T03:06:21.956Z,100720.03
2023-02-03T03:09:00.654Z,100733.47
2023-02-03T03:11:33.411Z,100731.00
2023-02-03T03:14:04.503Z,100723.00
2023-02-03T03:16:37.618Z,100729.84
2023-02-03T03:19:15.292Z,100722.78
2023-02-03T03:21:57.593Z,100725.16
2023-02-03T03:24:31.092Z,100730.16
2023-02-03T03:27:14.037Z,100726.09
2023-02-03T03:29:54.492Z,100731.06
2023-02-03T03:32:23.354Z,100729.13
2023-02-03T03:34:52.353Z,100728.06
2023-02-03T03:37:22.130Z,100724.50
2023-02-03T03:39:59.872Z,100726.13
2023-02-03T03:42:38.076Z,100721.00
2023-02-03T03:45:22.827Z,100728.03
2023-02-03T03:48:01.576Z,100720.38
2023-02-03T03:50:34.048Z,100725.69
2023-02-03T03:53:04.462Z,100728.16
2023-02-03T03:55:35.551Z,100721.13
2023-02-03T03:58:21.103Z,100715.94
2023-02-03T04:00:49.553Z,100726.06
2023-02-03T04:03:28.980Z,100730.22
2023-02-03T04:05:56.569Z,100738.78
2023-02-03T04:08:24.441Z,100731.50
2023-02-03T04:10:52.099Z,100729.00
2023-02-03T04:13:20.734Z,100727.97
2023-02-03T04:15:48.451Z,100727.72
2023-02-03T04:18:17.078Z,100725.09
2023-02-03T04:20:44.798Z,100715.53
2023-02-03T04:23:12.704Z,100731.06
2023-02-03T04:25:40.292Z,100725.50
2023-02-03T04:28:08.293Z,100727.09
2023-02-03T04:30:36.107Z,100726.94
2023-02-03T04:33:04.047Z,100727.75
2023-02-03T04:35:31.707Z,100724.19
2023-02-03T04:37:59.710Z,100726.75
2023-02-03T04:40:27.568Z,100728.41
2023-02-03T04:42:55.731Z,100721.16
2023-02-03T04:45:23.266Z,100726.06
2023-02-03T04:47:54.622Z,100733.84
2023-02-03T04:50:22.496Z,100727.53
2023-02-03T04:52:51.100Z,100722.41
2023-02-03T04:55:18.703Z,100719.63
2023-02-03T04:57:46.530Z,100723.91
2023-02-03T05:00:14.759Z,100716.88
2023-02-03T05:02:42.638Z,100715.94
2023-02-03T05:05:10.367Z,100717.16
2023-02-03T05:07:38.345Z,100708.19
2023-02-03T05:10:06.326Z,100707.06
2023-02-03T05:12:34.250Z,100695.91
2023-02-03T05:15:02.121Z,100706.38
2023-02-03T05:17:30.045Z,100702.78
2023-02-03T05:19:57.732Z,100704.31
2023-02-03T05:22:25.582Z,100701.50
2023-02-03T05:24:53.137Z,100708.44
2023-02-03T05:27:21.131Z,100700.72
2023-02-03T05:29:48.820Z,100698.13
2023-02-03T05:32:16.688Z,100695.59
2023-02-03T05:34:44.258Z,100704.19
2023-02-03T05:37:12.095Z,100697.56
2023-02-03T05:39:39.664Z,100694.03
2023-02-03T05:42:07.535Z,100695.72
2023-02-03T05:44:35.175Z,100704.28
2023-02-03T05:47:03.135Z,100694.91
2023-02-03T05:49:30.794Z,100687.19
2023-02-03T05:51:58.758Z,100686.28
2023-02-03T05:54:26.305Z,100688.91
2023-02-03T05:56:54.300Z,100692.25
2023-02-03T05:59:21.958Z,100691.53
2023-02-03T06:01:49.893Z,100694.88
2023-02-03T06:04:17.631Z,100694.41
2023-02-03T06:06:47.720Z,100683.28
2023-02-03T06:09:15.530Z,100685.28
2023-02-03T06:11:43.446Z,100671.41
2023-02-03T06:14:11.104Z,100680.16
2023-02-03T06:16:38.993Z,100676.19
2023-02-03T06:19:06.719Z,100680.38
2023-02-03T06:21:34.548Z,100674.47
2023-02-03T06:24:02.357Z,100664.38
2023-02-03T06:26:30.297Z,100676.69
2023-02-03T06:28:57.962Z,100664.78
2023-02-03T06:31:26.100Z,100666.81
2023-02-03T06:33:54.105Z,100672.00
2023-02-03T06:36:22.398Z,100651.28
2023-02-03T06:38:50.218Z,100661.09
2023-02-03T06:41:18.152Z,100651.81
2023-02-03T06:43:45.921Z,100652.97
2023-02-03T06:46:13.782Z,100644.53
2023-02-03T06:48:41.432Z,100633.44
2023-02-03T06:51:09.454Z,100635.31
2023-02-03T06:53:37.175Z,100632.25
2023-02-03T06:56:05.414Z,100622.22
2023-02-03T06:58:33.064Z,100619.13
2023-02-03T07:01:01.125Z,100620.84
2023-02-03T07:03:28.857Z,100620.91
2023-02-03T07:05:57.008Z,100621.00
2023-02-03T07:08:24.616Z,100618.59
2023-02-03T07:10:56.001Z,100593.81
2023-02-03T07:13:23.733Z,100604.31
2023-02-03T07:15:52.890Z,100601.06
2023-02-03T07:18:45.467Z,100596.03
2023-02-03T07:21:13.731Z,100586.72
2023-02-03T07:23:41.360Z,100580.91
2023-02-03T07:26:11.196Z,100579.47
2023-02-03T07:28:38.842Z,100577.13
2023-02-03T07:31:10.351Z,100576.91
2023-02-03T07:33:39.161Z,100574.69
2023-02-03T07:36:08.041Z,100572.41
2023-02-03T07:38:35.753Z,100558.84
2023-02-03T07:41:04.363Z,100560.69
2023-02-03T07:43:32.100Z,100548.16
2023-02-03T07:46:01.805Z,100550.00
2023-02-03T07:48:29.575Z,100538.84
2023-02-03T07:50:57.480Z,100542.38
2023-02-03T07:53:25.147Z,100541.47
2023-02-03T07:55:53.037Z,100537.16
2023-02-03T07:58:21.053Z,100531.91
2023-02-03T08:00:48.923Z,100518.09
2023-02-03T08:03:16.562Z,100516.38
2023-02-03T08:05:44.466Z,100523.34
2023-02-03T08:08:12.180Z,100517.34
2023-02-03T08:10:40.204Z,100512.19
2023-02-03T08:13:08.064Z,100507.00
2023-02-03T08:15:36.267Z,100501.81
2023-02-03T08:18:04.578Z,100493.13
2023-02-03T08:20:32.502Z,100494.81
2023-02-03T08:23:00.147Z,100494.81
2023-02-03T08:25:28.126Z,100497.38
2023-02-03T08:27:55.832Z,100492.03
2023-02-03T08:30:24.554Z,100498.84
2023-02-03T08:32:56.298Z,100485.03
2023-02-03T08:35:24.945Z,100477.13
2023-02-03T08:40:15.162Z,100470.19
2023-02-03T08:42:43.234Z,100465.94
2023-02-03T08:45:11.423Z,100474.69
2023-02-03T08:47:39.420Z,100460.75
2023-02-03T08:50:09.223Z,100455.50
2023-02-03T08:52:37.318Z,100451.88
2023-02-03T08:55:05.434Z,100453.56
2023-02-03T08:57:37.600Z,100439.75
2023-02-03T09:00:06.505Z,100425.81
2023-02-03T09:02:34.507Z,100426.78
2023-02-03T09:05:02.289Z,100419.16
2023-02-03T09:07:30.583Z,100427.84
2023-02-03T09:09:58.263Z,100426.09
2023-02-03T09:12:26.288Z,100413.75
2023-02-03T09:14:54.040Z,100385.91
2023-02-03T09:17:22.021Z,100398.84
2023-02-03T09:19:49.757Z,100398.44
2023-02-03T09:22:17.782Z,100384.59
2023-02-03T09:24:45.696Z,100384.69
2023-02-03T09:27:13.632Z,100383.09
2023-02-03T09:29:41.357Z,100375.13
2023-02-03T09:32:10.741Z,100383.25
2023-02-03T09:34:41.603Z,100377.28
2023-02-03T09:37:09.785Z,100377.81
2023-02-03T09:39:37.474Z,100368.44
2023-02-03T09:42:56.443Z,100361.72
2023-02-03T09:45:28.868Z,100351.88
2023-02-03T09:48:10.008Z,100337.59
2023-02-03T09:50:40.859Z,100349.84
2023-02-03T09:53:35.499Z,100337.94
2023-02-03T09:56:03.210Z,100336.25
2023-02-03T09:58:34.582Z,100328.25
2023-02-03T10:01:06.849Z,100316.13
2023-02-03T10:03:51.715Z,100309.28
2023-02-03T10:06:43.215Z,100286.53
2023-02-03T10:09:40.891Z,100291.94
2023-02-03T10:12:34.595Z,100288.34
2023-02-03T10:15:40.439Z,100279.97
2023-02-03T10:18:16.441Z,100280.19
2023-02-03T10:20:52.271Z,100252.34
2023-02-03T10:23:24.213Z,100249.50
2023-02-03T10:25:57.431Z,100244.59
2023-02-03T10:28:31.211Z,100242.13
2023-02-03T10:31:02.942Z,100239.44
2023-02-03T10:33:32.095Z,100233.84
2023-02-03T10:36:21.466Z,100228.09
2023-02-03T10:39:15.435Z,100221.69
2023-02-03T10:41:43.538Z,100222.16
2023-02-03T10:44:15.129Z,100206.75
2023-02-03T10:46:45.451Z,100213.13
2023-02-03T10:49:16.438Z,100203.88
2023-02-03T10:52:02.306Z,100187.75
2023-02-03T10:54:34.683Z,100181.63
2023-02-03T10:57:06.801Z,100169.56
2023-02-03T10:59:45.664Z,100156.72
2023-02-03T11:02:29.431Z,100147.13
2023-02-03T11:05:33.634Z,100137.53
2023-02-03T11:08:01.737Z,100128.16
2023-02-03T11:10:35.979Z,100121.28
2023-02-03T11:13:09.896Z,100110.50
2023-02-03T11:15:38.011Z,100102.16
2023-02-03T11:18:05.959Z,100089.88
2023-02-03T11:20:37.192Z,100076.28
2023-02-03T11:23:06.018Z,100071.88
2023-02-03T11:25:33.809Z,100052.78
2023-02-03T11:28:07.301Z,100052.78
2023-02-03T11:30:35.053Z,100045.00
2023-02-03T11:33:03.848Z,100053.53
2023-02-03T11:35:33.648Z,100036.03
2023-02-03T11:38:02.344Z,100029.25
2023-02-03T11:40:32.657Z,100017.69
2023-02-03T11:43:14.398Z,100012.69
2023-02-03T11:45:54.563Z,100003.88
2023-02-03T11:48:30.937Z,100003.94
2023-02-03T11:51:17.392Z,99989.34
2023-02-03T11:54:05.051Z,99976.63
2023-02-03T11:56:50.761Z,99962.44
2023-02-03T11:59:50.390Z,99946.38
2023-02-03T12:02:42.940Z,99950.03
2023-02-03T12:05:22.836Z,99939.81
2023-02-03T12:07:59.339Z,99939.03
2023-02-03T12:10:46.068Z,99924.34
2023-02-03T12:13:36.832Z,99914.94
2023-02-03T12:16:19.857Z,99914.25
2023-02-03T12:19:02.303Z,99899.34
2023-02-03T12:21:33.007Z,99893.50
2023-02-03T12:24:25.439Z,99891.88
2023-02-03T12:27:03.579Z,99886.84
2023-02-03T12:29:38.635Z,99885.91
2023-02-03T12:32:25.414Z,99884.06
2023-02-03T12:34:59.069Z,99868.66
2023-02-03T12:37:29.338Z,99866.19
2023-02-03T12:40:12.420Z,99862.72
2023-02-03T12:42:53.505Z,99852.28
2023-02-03T12:45:36.948Z,99842.88
2023-02-03T12:48:11.761Z,99842.88
2023-02-03T12:50:41.095Z,99840.25
2023-02-03T12:53:35.099Z,99841.28
2023-02-03T12:56:16.468Z,99830.00
2023-02-03T12:58:54.405Z,99810.38
2023-02-03T13:01:23.834Z,99809.47
2023-02-03T13:04:16.080Z,99799.28
2023-02-03T13:07:13.029Z,99790.59
2023-02-03T13:09:49.041Z,99788.91
2023-02-03T13:12:30.833Z,99769.22
2023-02-03T13:15:20.826Z,99764.06
2023-02-03T13:18:04.467Z,99749.56
2023-02-03T13:20:36.174Z,99738.47
2023-02-03T13:23:12.591Z,99723.91
2023-02-03T13:26:03.349Z,99725.38
2023-02-03T13:28:59.843Z,99711.84
2023-02-03T13:31:39.705Z,99698.84
2023-02-03T13:34:19.314Z,99694.66
2023-02-03T13:37:06.355Z,99694.72
2023-02-03T13:39:52.583Z,99678.28
2023-02-03T13:42:33.461Z,99677.47
2023-02-03T13:45:17.026Z,99670.66
2023-02-03T13:47:54.989Z,99659.44
2023-02-03T13:50:29.944Z,99648.38
2023-02-03T13:53:07.186Z,99645.00
2023-02-03T13:55:39.524Z,99635.66
2023-02-03T13:58:22.037Z,99622.84
2023-02-03T14:00:52.618Z,99616.88
2023-02-03T14:03:26.688Z,99615.28
2023-02-03T14:05:58.223Z,99610.25
2023-02-03T14:08:26.318Z,99608.69
2023-02-03T14:11:35.758Z,99593.16
2023-02-03T14:14:09.208Z,99598.38
2023-02-03T14:16:41.544Z,99586.41
2023-02-03T14:19:33.680Z,99584.75
2023-02-03T14:22:17.590Z,99579.56
2023-02-03T14:24:47.901Z,99584.78
2023-02-03T14:27:25.991Z,99571.28
2023-02-03T14:30:08.378Z,99574.66
2023-02-03T14:32:54.372Z,99565.34
2023-02-03T14:35:35.172Z,99565.44
2023-02-03T14:38:10.711Z,99561.09
2023-02-03T14:40:56.462Z,99553.44
2023-02-03T14:43:30.143Z,99550.91
2023-02-03T14:46:00.893Z,99555.19
2023-02-03T14:48:46.221Z,99547.53
2023-02-03T14:51:16.957Z,99539.84
2023-02-03T14:53:53.717Z,99540.69
2023-02-03T14:57:05.335Z,99535.56
2023-02-03T14:59:56.478Z,99535.66
2023-02-03T15:02:27.586Z,99537.28
2023-02-03T15:05:13.815Z,99524.38
2023-02-03T15:07:48.832Z,99527.06
2023-02-03T15:10:19.747Z,99522.72
2023-02-03T15:12:52.925Z,99513.34
2023-02-03T15:15:29.826Z,99524.53
2023-02-03T15:18:19.357Z,99509.84
2023-02-03T15:20:53.285Z,99508.16
2023-02-03T15:23:30.547Z,99501.28
2023-02-03T15:26:01.067Z,99492.72
2023-02-03T15:28:30.470Z,99493.63
2023-02-03T15:31:22.749Z,99500.50
2023-02-03T15:33:52.728Z,99480.78
2023-02-03T15:36:34.508Z,99487.66
2023-02-03T15:39:24.360Z,99481.56
2023-02-03T15:41:54.792Z,99478.22
2023-02-03T15:44:45.798Z,99476.50
2023-02-03T15:47:41.271Z,99462.00
2023-02-03T15:50:20.135Z,99461.13
2023-02-03T15:52:51.637Z,99461.97
2023-02-03T15:55:36.604Z,99438.03
2023-02-03T15:58:04.831Z,99451.66
2023-02-03T16:00:39.992Z,99458.53
2023-02-03T16:03:22.137Z,99456.00
2023-02-03T16:05:50.678Z,99447.41
2023-02-03T16:08:38.872Z,99437.94
2023-02-03T16:11:30.169Z,99430.25
2023-02-03T16:14:00.937Z,99431.97
2023-02-03T16:17:03.815Z,99427.69
2023-02-03T16:19:34.574Z,99422.53
2023-02-03T16:22:02.586Z,99419.09
2023-02-03T16:24:33.378Z,99422.53
2023-02-03T16:27:26.221Z,99412.28
2023-02-03T16:30:33.765Z,99410.56
2023-02-03T16:33:34.699Z,99404.53
2023-02-03T16:36:30.294Z,99400.28
2023-02-03T16:39:20.884Z,99390.81
2023-02-03T16:42:07.557Z,99386.53
2023-02-03T16:44:54.413Z,99380.50
2023-02-03T16:47:43.503Z,99370.25
2023-02-03T16:50:40.504Z,99362.56
2023-02-03T16:53:15.092Z,99360.84
2023-02-03T16:55:45.878Z,99373.69
2023-02-03T16:58:13.750Z,99350.59
2023-02-03T17:00:44.596Z,99360.84
2023-02-03T17:03:18.858Z,99356.53
2023-02-03T17:05:47.892Z,99354.81
2023-02-03T17:08:17.677Z,99348.03
2023-02-03T17:10:48.016Z,99365.94
2023-02-03T17:13:17.051Z,99359.06
2023-02-03T17:15:47.720Z,99353.91
2023-02-03T17:18:16.658Z,99359.88
2023-02-03T17:20:45.692Z,99359.03
2023-02-03T17:23:16.356Z,99353.94
2023-02-03T17:25:48.727Z,99352.22
2023-02-03T17:28:17.387Z,99350.50
2023-02-03T17:30:45.884Z,99352.22
2023-02-03T17:33:13.682Z,99357.31
2023-02-03T17:35:44.024Z,99352.13
2023-02-03T17:38:15.064Z,99360.72
2023-02-03T17:54:39.366Z,99379.66
2023-02-03T17:57:07.591Z,99372.66
2023-02-03T17:59:37.782Z,99378.66
2023-02-03T18:02:05.987Z,99376.94
2023-02-03T18:04:35.030Z,99386.28
2023-02-03T18:07:03.144Z,99383.75
2023-02-03T18:09:31.099Z,99379.50
2023-02-03T18:11:59.249Z,99380.41
2023-02-03T18:14:27.263Z,99384.59
2023-02-03T18:16:55.518Z,99388.00
2023-02-03T18:19:23.306Z,99388.84
2023-02-03T18:21:51.413Z,99393.13
2023-02-03T18:24:22.368Z,99404.25
2023-02-03T18:26:51.829Z,99400.00
2023-02-03T18:29:20.255Z,99398.41
2023-02-03T18:31:48.698Z,99394.88
2023-02-03T18:34:17.657Z,99403.41
2023-02-03T18:36:46.314Z,99402.56
2023-02-03T18:39:15.265Z,99391.53
2023-02-03T18:41:43.749Z,99392.28
2023-02-03T18:44:11.531Z,99396.63
2023-02-03T18:46:40.010Z,99403.47
2023-02-03T18:49:09.533Z,99403.47
2023-02-03T18:51:37.639Z,99418.09
2023-02-03T18:54:05.698Z,99422.31
2023-02-03T18:56:35.499Z,99427.38
2023-02-03T18:59:09.783Z,99425.66
2023-02-03T19:01:41.514Z,99424.03
2023-02-03T19:04:09.271Z,99426.50
2023-02-03T19:06:37.777Z,99423.97
2023-02-03T19:09:06.004Z,99417.16
2023-02-03T19:11:35.076Z,99427.41
2023-02-03T19:14:03.058Z,99423.13
2023-02-03T19:16:31.472Z,99419.66
2023-02-03T19:18:59.219Z,99422.19
2023-02-03T19:21:27.243Z,99420.53
2023-02-03T19:23:55.038Z,99415.41
2023-02-03T19:26:23.033Z,99418.88
2023-02-03T19:28:51.732Z,99423.94
2023-02-03T19:31:19.695Z,99418.78
2023-02-03T19:33:47.400Z,99408.53
2023-02-03T19:36:15.368Z,99408.59
2023-02-03T19:38:44.291Z,99418.06
2023-02-03T19:41:12.420Z,99413.69
2023-02-03T19:43:40.430Z,99424.84
2023-02-03T19:46:09.041Z,99428.22
2023-02-03T19:48:37.008Z,99427.38
2023-02-03T19:51:05.412Z,99421.34
2023-02-03T19:53:33.095Z,99426.47
2023-02-03T19:56:01.023Z,99429.09
2023-02-03T19:58:30.711Z,99418.81
2023-02-03T20:00:58.818Z,99423.94
2023-02-03T20:03:26.822Z,99437.69
2023-02-03T20:05:54.854Z,99437.69
2023-02-03T20:08:22.958Z,99436.81
2023-02-03T20:10:51.998Z,99453.13
2023-02-03T20:13:19.666Z,99434.25
2023-02-03T20:15:47.824Z,99442.78
2023-02-03T20:18:15.772Z,99439.41
2023-02-03T20:20:43.823Z,99432.53
2023-02-03T20:23:11.649Z,99448.91
2023-02-03T20:25:39.689Z,99450.63
2023-02-03T20:28:07.588Z,99448.84
2023-02-03T20:30:36.717Z,99461.69
2023-02-03T20:33:04.858Z,99465.09
2023-02-03T20:35:32.851Z,99473.66
2023-02-03T20:38:00.550Z,99466.81
2023-02-03T20:40:29.829Z,99473.66
2023-02-03T20:43:02.580Z,99471.06
2023-02-03T20:45:30.964Z,99491.69
2023-02-03T20:47:59.124Z,99468.53
2023-02-03T20:50:37.477Z,99510.47
2023-02-03T20:53:15.111Z,99506.16
2023-02-03T20:55:43.192Z,99507.03
2023-02-03T20:58:23.459Z,99511.41
2023-02-03T21:00:52.154Z,99496.81
2023-02-03T21:03:39.417Z,99499.38
2023-02-03T21:06:17.482Z,99501.16
2023-02-03T21:08:47.095Z,99502.84
2023-02-03T21:11:17.625Z,99501.16
2023-02-03T21:13:46.524Z,99493.44
2023-02-03T21:16:20.643Z,99499.50
2023-02-03T21:18:48.625Z,99495.22
2023-02-03T21:21:27.443Z,99514.94
2023-02-03T21:23:56.019Z,99526.13
2023-02-03T21:26:29.251Z,99535.53
2023-02-03T21:28:59.119Z,99539.84
2023-02-03T21:31:37.282Z,99550.16
2023-02-03T21:34:23.008Z,99543.28
2023-02-03T21:36:51.016Z,99536.50
2023-02-03T21:39:37.474Z,99545.88
2023-02-03T21:42:41.013Z,99545.84
2023-02-03T21:45:16.003Z,99552.69
2023-02-03T21:47:45.820Z,99559.56
2023-02-03T21:50:34.602Z,99569.84
2023-02-03T21:53:21.718Z,99568.13
2023-02-03T21:55:49.901Z,99571.53
2023-02-03T21:58:23.929Z,99566.38
2023-02-03T22:00:54.226Z,99577.53
2023-02-03T22:03:28.399Z,99576.72
2023-02-03T22:06:05.157Z,99593.84
2023-02-03T22:08:44.448Z,99594.72
2023-02-03T22:11:13.512Z,99597.28
2023-02-03T22:13:42.742Z,99595.59
2023-02-03T22:16:10.899Z,99593.88
2023-02-03T22:18:39.773Z,99611.03
2023-02-03T22:21:07.909Z,99617.91
2023-02-03T22:23:35.870Z,99618.75
2023-02-03T22:26:03.717Z,99626.53
2023-02-03T22:28:31.671Z,99622.19
2023-02-03T22:30:59.385Z,99617.91
2023-02-03T22:33:27.372Z,99607.66
2023-02-03T22:35:55.037Z,99622.28
2023-02-03T22:38:23.111Z,99631.72
2023-02-03T22:40:50.870Z,99647.13
2023-02-03T22:43:18.779Z,99645.44
2023-02-03T22:45:46.510Z,99648.00
2023-02-03T22:48:14.474Z,99645.41
2023-02-03T22:50:42.394Z,99648.00
2023-02-03T22:53:10.560Z,99645.44
2023-02-03T22:55:39.035Z,99653.16
2023-02-03T22:58:07.778Z,99666.84
2023-02-03T23:00:35.868Z,99665.13
2023-02-03T23:03:05.088Z,99676.28
2023-02-03T23:05:33.115Z,99674.56
2023-02-03T23:08:01.307Z,99668.56
2023-02-03T23:10:31.092Z,99681.41
2023-02-03T23:13:00.921Z,99682.28
2023-02-03T23:15:29.236Z,99679.75
2023-02-03T23:17:57.346Z,99689.16
2023-02-03T23:20:25.088Z,99690.88
2023-02-03T23:22:53.267Z,99692.59
2023-02-03T23:25:21.123Z,99686.56
2023-02-03T23:27:49.063Z,99691.72
2023-02-03T23:30:16.838Z,99690.00
2023-02-03T23:32:44.777Z,99698.56
2023-02-03T23:35:31.588Z,99708.84
2023-02-03T23:37:59.587Z,99719.13
2023-02-03T23:40:27.364Z,99737.94
2023-02-03T23:42:55.321Z,99739.66
2023-02-03T23:45:23.047Z,99749.06
2023-02-03T23:47:51.533Z,99761.91
2023-02-03T23:50:20.115Z,99765.31
2023-02-03T23:52:48.805Z,99773.88
2023-02-03T23:55:19.258Z,99785.88
2023-02-03T23:57:47.390Z,99791.03
